Time;durP1;ratioP1;P1;durP2;ratioP2;P2;SDS_P1;SDS_P2;PMS_P1;PMS_P2;Temp;Humidity;BMP_temperature;BMP_pressure;BME280_temperature;BME280_humidity;BME280_pressure;Samples;Min_cycle;Max_cycle;Signal;HPM_P1;HPM_P2
2023/05/31 04:04:07;;;;;;;1.13;0.90;;;13.70;76.10;;;;;;6001780;23;20518;-63
2023/05/31 04:06:33;;;;;;;1.00;1.00;;;13.70;76.30;;;;;;4935303;29;20511;-64
2023/05/31 04:09:00;;;;;;;1.53;0.97;;;13.80;76.40;;;;;;4935978;29;20199;-63
2023/05/31 04:11:26;;;;;;;0.83;0.83;;;13.80;76.40;;;;;;4935637;29;20224;-62
2023/05/31 04:13:51;;;;;;;1.83;1.20;;;13.80;77.30;;;;;;4935680;29;20404;-63
2023/05/31 04:16:17;;;;;;;1.27;0.63;;;13.90;77.50;;;;;;4935003;29;20453;-62
2023/05/31 04:18:42;;;;;;;3.40;1.07;;;14.00;78.30;;;;;;4934843;29;20172;-63
2023/05/31 04:21:08;;;;;;;0.80;0.80;;;14.30;79.10;;;;;;4935458;29;20184;-65
2023/05/31 04:23:36;;;;;;;1.47;1.10;;;14.60;77.10;;;;;;4935677;29;20180;-64
2023/05/31 04:26:02;;;;;;;0.70;0.70;;;15.00;76.10;;;;;;4935882;29;20229;-64
2023/05/31 04:28:29;;;;;;;1.57;1.47;;;15.40;74.90;;;;;;4939323;29;20860;-64
2023/05/31 04:30:56;;;;;;;1.30;1.20;;;15.90;72.90;;;;;;4939121;29;20584;-64
2023/05/31 04:33:22;;;;;;;0.90;0.90;;;16.30;72.50;;;;;;4938757;29;20476;-63
2023/05/31 04:35:49;;;;;;;1.40;1.30;;;16.70;73.50;;;;;;4938059;29;20500;-63
2023/05/31 04:38:16;;;;;;;1.03;1.03;;;17.10;73.00;;;;;;4938080;29;20399;-64
2023/05/31 04:40:42;;;;;;;1.43;1.10;;;17.40;70.30;;;;;;4939133;29;20875;-64
2023/05/31 04:43:08;;;;;;;1.47;1.13;;;17.60;70.50;;;;;;4938756;29;20429;-64
2023/05/31 04:45:33;;;;;;;1.33;1.23;;;17.80;69.50;;;;;;4938548;29;20201;-64
2023/05/31 04:47:59;;;;;;;3.07;1.00;;;17.80;67.20;;;;;;4938495;29;20260;-64
2023/05/31 04:50:25;;;;;;;1.13;1.13;;;17.80;67.40;;;;;;4938970;29;20185;-64
2023/05/31 04:52:54;;;;;;;1.90;1.23;;;17.70;66.50;;;;;;4938568;29;20416;-64
2023/05/31 04:55:19;;;;;;;1.70;1.07;;;17.60;66.60;;;;;;4938143;29;20203;-64
2023/05/31 04:57:45;;;;;;;0.90;0.90;;;17.50;68.20;;;;;;4938290;29;20952;-64
2023/05/31 05:00:15;;;;;;;1.27;1.27;;;17.40;67.60;;;;;;4938187;29;20595;-63
2023/05/31 05:02:41;;;;;;;0.80;0.80;;;17.30;68.70;;;;;;4939055;29;20176;-64
2023/05/31 05:05:07;;;;;;;2.00;1.33;;;17.20;69.20;;;;;;4937633;29;20885;-64
2023/05/31 05:07:32;;;;;;;1.20;1.20;;;17.20;67.70;;;;;;4938620;29;20425;-64
2023/05/31 05:09:58;;;;;;;0.83;0.83;;;17.10;67.10;;;;;;4938741;29;20456;-64
2023/05/31 05:12:23;;;;;;;0.87;0.87;;;17.20;68.10;;;;;;4938626;29;20185;-64
2023/05/31 05:14:49;;;;;;;1.20;1.10;;;17.30;67.70;;;;;;4937930;29;20198;-64
2023/05/31 05:17:15;;;;;;;0.93;0.80;;;17.30;66.90;;;;;;4939733;29;20210;-64
2023/05/31 05:19:40;;;;;;;1.20;1.20;;;17.30;67.20;;;;;;4939414;29;20716;-66
2023/05/31 05:22:07;;;;;;;0.83;0.80;;;17.30;68.10;;;;;;4937067;29;20227;-67
2023/05/31 05:24:32;;;;;;;0.90;0.80;;;17.30;66.50;;;;;;4938258;29;20190;-66
2023/05/31 05:26:58;;;;;;;1.00;0.90;;;17.30;67.90;;;;;;4938309;29;20431;-66
2023/05/31 05:29:24;;;;;;;2.23;1.70;;;17.30;67.50;;;;;;4937912;29;20471;-66
2023/05/31 05:31:50;;;;;;;1.50;1.27;;;17.30;67.20;;;;;;4937914;29;20446;-66
2023/05/31 05:34:16;;;;;;;1.10;1.10;;;17.30;67.50;;;;;;4937662;29;20208;-67
2023/05/31 05:36:41;;;;;;;1.07;1.07;;;17.40;67.80;;;;;;4937737;29;20561;-66
2023/05/31 05:39:07;;;;;;;1.20;1.13;;;17.40;67.40;;;;;;4936943;29;20182;-66
2023/05/31 05:41:33;;;;;;;1.00;0.90;;;17.50;67.80;;;;;;4937889;29;20166;-66
2023/05/31 05:43:59;;;;;;;1.10;0.90;;;17.50;67.70;;;;;;4937392;29;20424;-66
2023/05/31 05:46:24;;;;;;;1.63;1.00;;;17.60;67.20;;;;;;4937519;29;20629;-64
2023/05/31 05:48:50;;;;;;;0.97;0.97;;;17.70;66.80;;;;;;4937467;29;20174;-67
2023/05/31 05:51:16;;;;;;;1.60;1.50;;;17.70;66.10;;;;;;4937586;29;20197;-67
2023/05/31 05:53:42;;;;;;;1.20;1.20;;;17.90;66.50;;;;;;4936943;29;20191;-66
2023/05/31 05:56:07;;;;;;;2.17;1.17;;;18.00;67.20;;;;;;4937244;29;20207;-67
2023/05/31 05:58:33;;;;;;;1.03;0.90;;;18.20;66.80;;;;;;4937306;29;20630;-69
2023/05/31 06:00:59;;;;;;;1.00;1.00;;;18.30;66.40;;;;;;4937392;29;20181;-69
2023/05/31 06:03:24;;;;;;;1.03;1.03;;;18.40;66.50;;;;;;4936972;29;20232;-71
2023/05/31 06:05:50;;;;;;;1.77;1.07;;;18.40;66.30;;;;;;4935690;29;20219;-71
2023/05/31 06:08:15;;;;;;;0.97;0.87;;;18.50;65.70;;;;;;4931644;29;20699;-71
2023/05/31 06:10:41;;;;;;;1.70;0.90;;;18.40;66.20;;;;;;4933483;29;20189;-72
2023/05/31 06:13:07;;;;;;;1.37;1.00;;;18.40;66.30;;;;;;4936184;29;20317;-70
2023/05/31 06:15:33;;;;;;;1.87;1.77;;;18.30;66.00;;;;;;4935489;29;20564;-70
2023/05/31 06:17:59;;;;;;;0.83;0.83;;;18.30;67.90;;;;;;4936957;29;20409;-70
2023/05/31 06:20:26;;;;;;;0.70;0.70;;;18.30;67.30;;;;;;4936674;29;20929;-71
2023/05/31 06:22:52;;;;;;;0.97;0.97;;;18.30;67.00;;;;;;4933188;29;20178;-70
2023/05/31 06:25:19;;;;;;;1.10;1.10;;;18.40;68.70;;;;;;4917505;29;20434;-69
2023/05/31 06:27:45;;;;;;;0.77;0.77;;;18.50;67.90;;;;;;4917611;29;20465;-70
2023/05/31 06:30:12;;;;;;;1.57;1.00;;;18.70;66.70;;;;;;4917908;29;20424;-71
2023/05/31 06:32:38;;;;;;;1.27;1.00;;;18.90;66.60;;;;;;4917718;29;20450;-75
2023/05/31 06:35:04;;;;;;;0.90;0.90;;;19.00;67.00;;;;;;4915814;29;20928;-74
2023/05/31 06:37:31;;;;;;;1.53;1.43;;;19.00;67.50;;;;;;4918777;29;20802;-76
2023/05/31 06:39:57;;;;;;;1.53;1.43;;;19.10;66.80;;;;;;4936605;29;20426;-70
2023/05/31 06:42:22;;;;;;;0.87;0.87;;;19.10;65.90;;;;;;4936662;29;20421;-73
2023/05/31 06:44:48;;;;;;;0.90;0.90;;;19.00;67.80;;;;;;4934284;29;20556;-71
2023/05/31 06:47:14;;;;;;;2.63;1.20;;;19.00;66.00;;;;;;4936736;29;20200;-71
2023/05/31 06:49:40;;;;;;;3.40;1.70;;;19.00;67.50;;;;;;4936243;29;20177;-71
2023/05/31 06:52:06;;;;;;;1.30;1.20;;;19.10;68.80;;;;;;4925914;29;20201;-70
2023/05/31 06:54:36;;;;;;;1.20;1.10;;;19.20;67.20;;;;;;4931501;29;20225;-67
2023/05/31 06:57:02;;;;;;;1.20;1.20;;;19.20;66.70;;;;;;4918242;29;20465;-72
2023/05/31 06:59:28;;;;;;;2.07;1.30;;;19.20;66.30;;;;;;4936618;29;20425;-69
2023/05/31 07:01:57;;;;;;;2.17;2.07;;;19.20;65.00;;;;;;4938196;29;20500;-68
2023/05/31 07:04:22;;;;;;;1.00;1.00;;;19.30;65.70;;;;;;4925759;29;20327;-68
2023/05/31 07:06:49;;;;;;;2.30;0.90;;;19.40;65.50;;;;;;4933575;29;20520;-68
2023/05/31 07:09:14;;;;;;;0.83;0.83;;;19.40;65.80;;;;;;4938128;29;20248;-68
2023/05/31 07:11:41;;;;;;;0.80;0.80;;;19.50;65.20;;;;;;4936264;29;20457;-68
2023/05/31 07:14:07;;;;;;;0.90;0.90;;;19.60;65.70;;;;;;4935824;29;20524;-67
2023/05/31 07:16:32;;;;;;;1.63;1.37;;;19.70;65.50;;;;;;4937060;29;20471;-68
2023/05/31 07:18:58;;;;;;;1.30;1.20;;;19.70;64.80;;;;;;4936910;29;20488;-68
2023/05/31 07:21:24;;;;;;;1.00;1.00;;;19.80;64.10;;;;;;4940604;29;20181;-66
2023/05/31 07:23:50;;;;;;;0.90;0.90;;;20.00;64.60;;;;;;4935827;29;20162;-66
2023/05/31 07:26:16;;;;;;;2.30;1.63;;;20.40;64.50;;;;;;4935962;29;20485;-70
2023/05/31 07:28:44;;;;;;;0.97;0.93;;;21.00;62.60;;;;;;4936034;29;20177;-68
2023/05/31 07:31:10;;;;;;;1.30;1.07;;;21.50;61.00;;;;;;4934484;29;20430;-69
2023/05/31 07:33:36;;;;;;;1.10;1.10;;;22.00;60.50;;;;;;4935724;29;20426;-70
2023/05/31 07:36:01;;;;;;;1.80;1.30;;;22.70;59.90;;;;;;4928115;29;20526;-67
2023/05/31 07:38:27;;;;;;;1.13;1.13;;;23.70;58.80;;;;;;4929397;29;20183;-69
2023/05/31 07:40:53;;;;;;;2.10;1.20;;;24.70;57.40;;;;;;4929346;29;20620;-72
2023/05/31 07:43:21;;;;;;;0.80;0.80;;;25.30;56.50;;;;;;4935600;29;20443;-69
2023/05/31 07:45:48;;;;;;;1.70;1.40;;;26.10;56.20;;;;;;4918528;29;20232;-68
2023/05/31 07:48:13;;;;;;;1.40;1.30;;;26.90;53.80;;;;;;4916885;29;20565;-73
2023/05/31 07:50:39;;;;;;;1.53;1.43;;;27.60;53.90;;;;;;4931390;29;20520;-70
2023/05/31 07:53:05;;;;;;;2.00;1.50;;;28.20;52.00;;;;;;4935521;29;20178;-69
2023/05/31 07:55:30;;;;;;;1.13;1.07;;;28.60;51.60;;;;;;4922202;29;20209;-71
2023/05/31 07:57:56;;;;;;;1.73;1.30;;;29.00;50.80;;;;;;4918968;29;20182;-69
2023/05/31 08:00:23;;;;;;;1.57;1.40;;;29.10;50.40;;;;;;4930099;29;20192;-70
2023/05/31 08:02:49;;;;;;;1.40;1.30;;;29.10;50.60;;;;;;4923672;29;20294;-72
2023/05/31 08:05:15;;;;;;;1.63;1.50;;;29.30;49.90;;;;;;4920893;29;20466;-69
2023/05/31 08:07:42;;;;;;;2.03;1.93;;;29.30;50.40;;;;;;4920736;29;20661;-69
2023/05/31 08:10:07;;;;;;;1.57;1.00;;;29.30;50.20;;;;;;4928204;29;20446;-72
2023/05/31 08:12:33;;;;;;;1.70;1.60;;;29.30;50.00;;;;;;4938614;29;20903;-69
2023/05/31 08:14:59;;;;;;;1.23;1.20;;;29.30;50.20;;;;;;4937335;29;20189;-67
2023/05/31 08:17:26;;;;;;;1.50;1.40;;;29.40;49.90;;;;;;4920956;29;20506;-72
2023/05/31 08:19:52;;;;;;;1.40;1.30;;;29.30;49.20;;;;;;4935134;29;20173;-71
2023/05/31 08:22:17;;;;;;;1.63;1.40;;;29.40;49.80;;;;;;4937410;29;20391;-68
2023/05/31 08:24:43;;;;;;;1.23;1.13;;;29.50;50.20;;;;;;4927458;29;20197;-67
2023/05/31 08:27:09;;;;;;;1.53;1.43;;;29.90;50.20;;;;;;4934314;29;20199;-67
2023/05/31 08:29:35;;;;;;;1.50;1.40;;;30.20;48.80;;;;;;4926562;29;20412;-67
2023/05/31 08:32:00;;;;;;;1.60;1.50;;;30.20;49.60;;;;;;4930431;29;20547;-66
2023/05/31 08:34:27;;;;;;;1.67;1.50;;;30.00;49.70;;;;;;4926014;29;20667;-65
2023/05/31 08:36:52;;;;;;;1.47;1.37;;;29.90;49.30;;;;;;4938706;29;20209;-66
2023/05/31 08:39:18;;;;;;;1.73;1.60;;;30.10;49.60;;;;;;4932569;29;20746;-66
2023/05/31 08:42:07;;;;;;;1.90;1.80;;;30.40;49.20;;;;;;4920002;29;20171;-67
2023/05/31 08:44:33;;;;;;;2.93;1.80;;;30.80;48.70;;;;;;4919890;29;20545;-67
2023/05/31 08:47:08;;;;;;;1.57;1.47;;;30.90;48.90;;;;;;4919819;29;20563;-66
2023/05/31 08:49:36;;;;;;;1.33;1.23;;;31.20;48.40;;;;;;4923348;29;20182;-67
2023/05/31 08:52:01;;;;;;;1.20;1.20;;;31.40;47.90;;;;;;4918975;29;20432;-67
2023/05/31 08:54:28;;;;;;;1.70;1.60;;;31.70;47.50;;;;;;4938661;29;20437;-67
2023/05/31 08:56:54;;;;;;;1.83;1.63;;;31.80;47.30;;;;;;4938805;29;20213;-66
2023/05/31 08:59:20;;;;;;;1.57;1.47;;;31.80;46.80;;;;;;4938869;29;20935;-68
2023/05/31 09:01:47;;;;;;;1.50;1.40;;;32.00;47.00;;;;;;4923710;29;20436;-66
2023/05/31 09:04:14;;;;;;;1.70;1.13;;;31.80;46.70;;;;;;4921810;29;20433;-66
2023/05/31 09:06:40;;;;;;;1.73;1.63;;;31.40;47.00;;;;;;4926815;29;20450;-68
2023/05/31 09:09:08;;;;;;;1.67;1.57;;;31.60;47.00;;;;;;4919571;29;20501;-65
2023/05/31 09:11:39;;;;;;;2.40;1.90;;;31.70;47.40;;;;;;4923488;29;20177;-71
2023/05/31 09:14:05;;;;;;;2.47;2.27;;;31.90;47.20;;;;;;4927587;29;20436;-68
2023/05/31 09:16:31;;;;;;;1.60;1.47;;;32.10;46.70;;;;;;4918832;29;20891;-67
2023/05/31 09:19:03;;;;;;;1.43;1.33;;;31.80;46.00;;;;;;4919652;29;20190;-68
2023/05/31 09:21:29;;;;;;;1.73;1.53;;;31.60;46.50;;;;;;4921437;29;20233;-68
2023/05/31 09:23:58;;;;;;;1.43;1.33;;;31.50;46.00;;;;;;4937896;29;20406;-69
2023/05/31 09:26:24;;;;;;;1.60;1.50;;;31.10;46.60;;;;;;4920084;29;20444;-70
2023/05/31 09:28:53;;;;;;;1.70;1.60;;;30.90;46.20;;;;;;4919087;29;20430;-68
2023/05/31 09:31:20;;;;;;;1.50;1.40;;;30.70;46.60;;;;;;4923323;29;20483;-69
2023/05/31 09:33:47;;;;;;;1.40;1.30;;;30.70;46.60;;;;;;4937459;29;20449;-70
2023/05/31 09:36:14;;;;;;;1.10;1.00;;;30.70;46.30;;;;;;4937077;29;20445;-70
2023/05/31 09:38:40;;;;;;;1.50;1.40;;;30.70;46.30;;;;;;4937215;29;20252;-70
2023/05/31 09:41:13;;;;;;;1.50;1.40;;;30.70;47.20;;;;;;4934555;29;20472;-71
2023/05/31 09:43:40;;;;;;;2.10;2.00;;;31.30;46.70;;;;;;4918537;29;20557;-69
2023/05/31 09:46:15;;;;;;;1.90;1.53;;;32.00;46.40;;;;;;4918524;29;20507;-69
2023/05/31 09:48:42;;;;;;;1.63;1.40;;;32.20;45.80;;;;;;4918128;29;20501;-71
2023/05/31 09:51:12;;;;;;;1.23;1.20;;;32.50;45.90;;;;;;4919879;29;20426;-69
2023/05/31 09:53:43;;;;;;;1.80;1.70;;;32.80;45.50;;;;;;4916991;29;20422;-69
2023/05/31 09:56:17;;;;;;;1.73;1.63;;;32.60;44.70;;;;;;4918653;29;20461;-68
2023/05/31 09:58:43;;;;;;;1.53;1.43;;;32.70;44.90;;;;;;4918833;29;20897;-70
2023/05/31 10:01:09;;;;;;;1.67;1.57;;;32.70;43.70;;;;;;4920442;29;20513;-69
2023/05/31 10:03:35;;;;;;;1.83;1.70;;;32.50;43.70;;;;;;4918299;29;20302;-70
2023/05/31 10:06:02;;;;;;;1.97;1.87;;;32.20;43.50;;;;;;4918160;29;20478;-70
2023/05/31 10:08:28;;;;;;;1.43;1.33;;;32.20;44.10;;;;;;4918446;29;20744;-70
2023/05/31 10:11:03;;;;;;;1.50;1.40;;;32.50;44.50;;;;;;4919809;29;20421;-69
2023/05/31 10:13:30;;;;;;;2.20;1.83;;;32.80;42.80;;;;;;4923387;29;20181;-71
2023/05/31 10:16:02;;;;;;;1.83;1.63;;;32.60;42.70;;;;;;4928663;29;20475;-70
2023/05/31 10:18:29;;;;;;;1.93;1.83;;;32.20;43.30;;;;;;4919865;29;20430;-70
2023/05/31 10:21:10;;;;;;;1.43;1.33;;;31.80;43.20;;;;;;4916497;29;20381;-70
2023/05/31 10:23:43;;;;;;;1.73;1.63;;;31.30;43.30;;;;;;4936060;29;20401;-71
2023/05/31 10:26:13;;;;;;;1.67;1.57;;;30.90;44.00;;;;;;4929866;29;20428;-69
2023/05/31 10:28:56;;;;;;;1.93;1.83;;;30.70;44.50;;;;;;4935971;29;20481;-70
2023/05/31 10:31:28;;;;;;;1.60;1.30;;;30.60;44.20;;;;;;4936981;29;20405;-72
2023/05/31 10:34:00;;;;;;;1.53;1.23;;;30.20;45.50;;;;;;4936781;29;20491;-73
2023/05/31 10:36:27;;;;;;;1.43;1.33;;;30.10;44.60;;;;;;4930074;29;20433;-69
2023/05/31 10:39:05;;;;;;;1.40;1.30;;;29.90;44.40;;;;;;4917907;29;20411;-71
2023/05/31 10:41:39;;;;;;;1.50;1.40;;;29.50;44.70;;;;;;4924553;29;20388;-70
2023/05/31 10:44:16;;;;;;;1.70;1.47;;;29.30;45.30;;;;;;4916041;29;20394;-69
2023/05/31 10:46:45;;;;;;;1.33;1.23;;;29.30;45.30;;;;;;4917700;29;20875;-72
2023/05/31 10:49:11;;;;;;;1.73;1.27;;;29.30;45.30;;;;;;4921607;29;20404;-72
2023/05/31 10:51:45;;;;;;;2.03;1.93;;;29.50;45.80;;;;;;4927134;29;20424;-71
2023/05/31 10:54:18;;;;;;;1.43;1.30;;;29.30;44.70;;;;;;4935574;29;20508;-71
2023/05/31 10:56:54;;;;;;;1.43;1.33;;;29.10;45.00;;;;;;4936399;29;20430;-71
2023/05/31 10:59:21;;;;;;;1.30;1.20;;;29.30;46.40;;;;;;4924569;29;20425;-72
2023/05/31 11:01:47;;;;;;;1.30;1.20;;;29.50;44.60;;;;;;4936221;29;20393;-71
2023/05/31 11:04:24;;;;;;;1.30;1.20;;;29.30;44.60;;;;;;4928794;29;20502;-71
2023/05/31 11:06:55;;;;;;;1.30;1.20;;;28.90;44.80;;;;;;4917920;29;20189;-71
2023/05/31 11:09:21;;;;;;;1.60;1.50;;;28.50;45.10;;;;;;4921858;29;20418;-70
2023/05/31 11:11:49;;;;;;;2.33;1.33;;;28.00;46.90;;;;;;4928889;29;20401;-69
2023/05/31 11:14:25;;;;;;;1.03;1.03;;;27.40;46.90;;;;;;4916854;29;20408;-69
2023/05/31 11:16:56;;;;;;;1.60;1.20;;;26.80;48.70;;;;;;4928875;29;20471;-70
2023/05/31 11:19:30;;;;;;;1.30;1.10;;;26.30;48.90;;;;;;4931689;29;20402;-72
2023/05/31 11:22:05;;;;;;;1.40;1.30;;;25.90;48.20;;;;;;4931865;29;20430;-71
2023/05/31 11:24:37;;;;;;;1.27;1.20;;;25.40;48.40;;;;;;4935107;29;20426;-72
2023/05/31 11:27:05;;;;;;;1.20;1.00;;;25.20;48.80;;;;;;4923028;29;20486;-71
2023/05/31 11:29:52;;;;;;;1.50;1.40;;;25.10;50.30;;;;;;4917120;29;20407;-70
2023/05/31 11:32:33;;;;;;;1.20;1.10;;;25.00;48.90;;;;;;4917215;29;20377;-71
2023/05/31 11:35:03;;;;;;;1.17;1.17;;;24.90;49.40;;;;;;4923615;29;20437;-71
2023/05/31 11:37:30;;;;;;;1.23;1.13;;;24.60;49.60;;;;;;4927151;29;20421;-69
2023/05/31 11:40:00;;;;;;;1.50;1.40;;;24.60;50.30;;;;;;4929573;29;20482;-71
2023/05/31 11:42:30;;;;;;;2.20;1.23;;;24.50;50.50;;;;;;4922818;29;20504;-71
2023/05/31 11:44:56;;;;;;;1.30;1.20;;;24.40;51.10;;;;;;4926750;29;20906;-71
2023/05/31 11:47:26;;;;;;;1.60;1.50;;;24.40;50.50;;;;;;4933589;29;20411;-71
2023/05/31 11:49:52;;;;;;;0.97;0.97;;;24.40;49.90;;;;;;4918583;29;20421;-72
2023/05/31 11:52:19;;;;;;;0.97;0.97;;;24.30;49.90;;;;;;4925435;29;20793;-72
2023/05/31 11:54:47;;;;;;;1.40;1.30;;;24.30;50.00;;;;;;4932592;29;20445;-72
2023/05/31 11:57:14;;;;;;;1.30;1.20;;;24.20;49.70;;;;;;4935848;29;20777;-72
2023/05/31 11:59:41;;;;;;;1.20;1.13;;;24.20;50.30;;;;;;4931907;29;20453;-71
2023/05/31 12:02:08;;;;;;;1.43;1.00;;;24.20;50.40;;;;;;4938558;29;20425;-70
2023/05/31 12:04:40;;;;;;;1.17;1.07;;;24.30;50.00;;;;;;4935216;29;20416;-69
2023/05/31 12:07:09;;;;;;;1.00;1.00;;;24.30;49.10;;;;;;4936033;29;20417;-68
2023/05/31 12:09:35;;;;;;;1.07;0.97;;;24.30;49.70;;;;;;4935884;29;20977;-70
2023/05/31 12:12:05;;;;;;;1.40;1.20;;;24.30;49.50;;;;;;4935728;29;20409;-69
2023/05/31 12:14:31;;;;;;;1.20;1.10;;;24.30;49.70;;;;;;4934521;29;20883;-70
2023/05/31 12:17:04;;;;;;;0.90;0.90;;;24.40;50.20;;;;;;4935221;29;20540;-69
2023/05/31 12:19:31;;;;;;;1.43;1.33;;;24.30;48.90;;;;;;4935853;29;20474;-70
2023/05/31 12:21:57;;;;;;;0.80;0.80;;;24.30;49.10;;;;;;4935524;29;20416;-69
2023/05/31 12:24:23;;;;;;;1.00;0.90;;;24.40;48.80;;;;;;4921308;29;20850;-69
2023/05/31 12:26:48;;;;;;;0.80;0.80;;;24.30;49.60;;;;;;4916333;29;20495;-70
2023/05/31 12:29:15;;;;;;;0.83;0.83;;;24.40;47.70;;;;;;4916683;29;20178;-69
2023/05/31 12:31:42;;;;;;;0.80;0.80;;;24.40;47.80;;;;;;4917001;29;20476;-69
2023/05/31 12:34:12;;;;;;;1.47;1.03;;;24.50;47.30;;;;;;4916193;29;20437;-69
2023/05/31 12:36:40;;;;;;;2.00;1.10;;;24.50;45.20;;;;;;4916478;29;20479;-69
2023/05/31 12:39:15;;;;;;;1.00;1.00;;;24.50;45.80;;;;;;4916610;29;20806;-69
2023/05/31 12:41:43;;;;;;;1.30;1.30;;;24.60;46.60;;;;;;4916968;29;20401;-73
2023/05/31 12:44:09;;;;;;;1.00;1.00;;;24.70;46.00;;;;;;4924225;29;20946;-72
2023/05/31 12:46:39;;;;;;;1.30;1.20;;;24.70;45.30;;;;;;4920802;29;20481;-71
2023/05/31 12:49:24;;;;;;;1.17;1.17;;;24.70;46.00;;;;;;4926396;29;20647;-69
2023/05/31 12:52:09;;;;;;;0.77;0.77;;;24.80;46.60;;;;;;4947114;28;20409;-70
2023/05/31 12:54:38;;;;;;;0.90;0.90;;;24.70;46.70;;;;;;4950948;28;20791;-71
2023/05/31 12:57:09;;;;;;;0.87;0.87;;;24.70;46.80;;;;;;4938112;29;20554;-72
2023/05/31 12:59:35;;;;;;;2.67;0.90;;;24.80;46.70;;;;;;4930472;29;20424;-70
2023/05/31 13:02:02;;;;;;;0.87;0.80;;;24.80;46.00;;;;;;4938484;29;20398;-72
2023/05/31 13:04:28;;;;;;;1.17;1.00;;;24.80;46.70;;;;;;4937924;29;20442;-71
2023/05/31 13:06:54;;;;;;;1.33;1.33;;;24.80;47.00;;;;;;4934158;29;20963;-71
2023/05/31 13:09:20;;;;;;;0.77;0.70;;;24.80;46.80;;;;;;4942391;29;20444;-72
2023/05/31 13:11:51;;;;;;;1.40;1.30;;;24.80;47.30;;;;;;4938602;29;20292;-72
2023/05/31 13:14:18;;;;;;;0.93;0.70;;;24.90;47.10;;;;;;4925103;29;20248;-71
2023/05/31 13:16:45;;;;;;;0.80;0.80;;;25.10;46.90;;;;;;4938327;29;20796;-71
2023/05/31 13:19:11;;;;;;;1.33;1.23;;;25.20;46.00;;;;;;4931492;29;20422;-70
2023/05/31 13:21:36;;;;;;;1.63;1.27;;;25.20;45.50;;;;;;4919471;29;20977;-71
2023/05/31 13:24:03;;;;;;;1.17;1.13;;;25.10;46.40;;;;;;4918889;29;20233;-72
2023/05/31 13:26:29;;;;;;;1.27;1.00;;;25.20;46.20;;;;;;4919419;29;20175;-71
2023/05/31 13:29:00;;;;;;;1.30;1.20;;;25.20;45.80;;;;;;4921602;29;20988;-71
2023/05/31 13:31:26;;;;;;;0.80;0.80;;;25.20;45.20;;;;;;4935740;29;20179;-71
2023/05/31 13:33:52;;;;;;;1.83;1.77;;;25.20;44.80;;;;;;4929675;29;20426;-69
2023/05/31 13:36:19;;;;;;;1.53;0.80;;;25.30;45.00;;;;;;4919223;29;20450;-68
2023/05/31 13:38:45;;;;;;;3.33;1.10;;;25.20;45.60;;;;;;4933762;29;20524;-69
2023/05/31 13:41:11;;;;;;;0.97;0.80;;;25.20;45.60;;;;;;4933973;29;20441;-68
2023/05/31 13:43:37;;;;;;;0.90;0.90;;;25.30;45.70;;;;;;4921393;29;20422;-71
2023/05/31 13:46:05;;;;;;;1.07;1.03;;;25.30;45.10;;;;;;4921586;29;20205;-70
2023/05/31 13:48:32;;;;;;;3.00;1.37;;;25.30;44.60;;;;;;4937668;29;20947;-65
2023/05/31 13:50:58;;;;;;;1.83;1.30;;;25.20;44.90;;;;;;4951293;29;20894;-67
2023/05/31 13:53:23;;;;;;;1.43;1.37;;;25.20;45.40;;;;;;4956729;28;20426;-67
2023/05/31 13:55:49;;;;;;;0.73;0.73;;;25.20;45.00;;;;;;4952659;29;20691;-70
2023/05/31 13:58:16;;;;;;;0.90;0.90;;;25.20;45.20;;;;;;4937512;29;20517;-70
2023/05/31 14:00:42;;;;;;;1.00;0.90;;;25.10;45.30;;;;;;4936907;29;20166;-69
2023/05/31 14:03:08;;;;;;;0.97;0.97;;;25.20;45.40;;;;;;4937138;29;20431;-69
2023/05/31 14:05:33;;;;;;;1.13;1.10;;;25.20;45.40;;;;;;4937274;29;20965;-71
2023/05/31 14:07:59;;;;;;;1.40;1.40;;;25.20;45.70;;;;;;4937592;29;20173;-68
2023/05/31 14:10:25;;;;;;;1.00;1.00;;;25.20;45.60;;;;;;4935414;29;20185;-68
2023/05/31 14:12:51;;;;;;;1.40;1.27;;;25.20;45.90;;;;;;4920623;29;20422;-69
2023/05/31 14:15:16;;;;;;;1.00;1.00;;;25.20;45.40;;;;;;4922807;29;20213;-69
2023/05/31 14:17:43;;;;;;;2.33;0.90;;;25.20;45.10;;;;;;4937119;29;20174;-69
2023/05/31 14:20:11;;;;;;;0.70;0.70;;;25.20;45.90;;;;;;4937293;29;20178;-69
2023/05/31 14:22:37;;;;;;;0.73;0.67;;;25.30;46.50;;;;;;4937164;29;20468;-70
2023/05/31 14:25:04;;;;;;;0.90;0.90;;;25.30;45.70;;;;;;4935141;29;20441;-70
2023/05/31 14:27:29;;;;;;;1.27;1.17;;;25.30;45.40;;;;;;4918185;29;20186;-70
2023/05/31 14:29:55;;;;;;;1.50;1.40;;;25.30;44.20;;;;;;4936886;29;20384;-70
2023/05/31 14:32:21;;;;;;;1.10;1.07;;;25.30;44.40;;;;;;4937037;29;20177;-69
2023/05/31 14:34:46;;;;;;;0.93;0.90;;;25.30;44.70;;;;;;4924646;29;20240;-70
2023/05/31 14:37:12;;;;;;;0.93;0.83;;;25.30;44.70;;;;;;4917716;29;20206;-70
2023/05/31 14:39:39;;;;;;;0.80;0.80;;;25.30;44.90;;;;;;4916601;29;20209;-70
2023/05/31 14:42:05;;;;;;;2.30;1.30;;;25.20;45.40;;;;;;4917833;29;20384;-71
2023/05/31 14:44:36;;;;;;;1.10;1.10;;;25.20;44.90;;;;;;4935288;29;20417;-69
2023/05/31 14:47:03;;;;;;;1.40;1.30;;;25.20;45.50;;;;;;4930318;29;20488;-70
2023/05/31 14:49:29;;;;;;;1.13;1.03;;;25.20;45.80;;;;;;4935177;29;20425;-70
2023/05/31 14:51:57;;;;;;;2.90;0.93;;;25.20;45.90;;;;;;4935500;29;20473;-69
2023/05/31 14:54:23;;;;;;;4.33;1.10;;;25.30;45.30;;;;;;4934871;29;20507;-69
2023/05/31 14:56:49;;;;;;;1.20;1.10;;;25.30;45.50;;;;;;4936522;29;20497;-68
2023/05/31 14:59:15;;;;;;;0.80;0.80;;;25.30;45.00;;;;;;4918392;29;20509;-69
2023/05/31 15:01:44;;;;;;;1.03;1.03;;;25.30;45.60;;;;;;4919490;29;20426;-69
2023/05/31 15:04:15;;;;;;;2.43;0.83;;;25.30;45.80;;;;;;4934758;29;20438;-69
2023/05/31 15:06:42;;;;;;;1.10;1.00;;;25.30;46.00;;;;;;4936101;29;20434;-69
2023/05/31 15:09:10;;;;;;;1.67;1.07;;;25.20;46.40;;;;;;4936507;29;20904;-69
2023/05/31 15:11:36;;;;;;;1.20;1.10;;;25.20;47.60;;;;;;4934141;29;20405;-70
2023/05/31 15:14:02;;;;;;;0.80;0.80;;;25.20;46.90;;;;;;4923841;29;21036;-70
2023/05/31 15:16:29;;;;;;;0.80;0.80;;;25.20;44.70;;;;;;4933498;29;20586;-68
2023/05/31 15:18:54;;;;;;;1.30;0.90;;;25.10;43.90;;;;;;4923276;29;20414;-70
2023/05/31 15:21:20;;;;;;;1.37;1.27;;;25.10;44.50;;;;;;4933470;29;20424;-66
2023/05/31 15:23:46;;;;;;;1.13;1.10;;;25.10;44.60;;;;;;4933510;29;20204;-68
2023/05/31 15:26:13;;;;;;;1.30;0.97;;;25.10;44.30;;;;;;4930574;29;20212;-69
2023/05/31 15:28:38;;;;;;;1.10;1.00;;;25.10;44.70;;;;;;4929475;29;20197;-68
2023/05/31 15:31:08;;;;;;;1.00;1.00;;;25.10;44.90;;;;;;4921226;29;20430;-69
2023/05/31 15:33:34;;;;;;;1.10;1.00;;;25.10;45.60;;;;;;4931292;29;20170;-70
2023/05/31 15:36:01;;;;;;;1.00;1.00;;;25.10;45.70;;;;;;4916971;29;20520;-69
2023/05/31 15:38:26;;;;;;;4.03;1.27;;;25.10;46.10;;;;;;4917212;29;20411;-70
2023/05/31 15:40:55;;;;;;;1.23;1.00;;;25.10;44.90;;;;;;4930025;29;20472;-68
2023/05/31 15:43:20;;;;;;;0.77;0.77;;;25.00;45.50;;;;;;4921491;29;20179;-67
2023/05/31 15:45:46;;;;;;;1.33;1.17;;;24.90;45.60;;;;;;4922230;29;20453;-68
2023/05/31 15:48:12;;;;;;;1.40;1.13;;;24.90;45.80;;;;;;4929695;29;20454;-67
2023/05/31 15:50:37;;;;;;;1.47;1.37;;;24.90;46.30;;;;;;4916960;29;20222;-68
2023/05/31 15:53:03;;;;;;;0.73;0.73;;;24.90;47.00;;;;;;4935836;29;20173;-69
2023/05/31 15:55:28;;;;;;;1.10;0.80;;;24.90;45.80;;;;;;4922181;29;20264;-68
2023/05/31 15:57:55;;;;;;;1.73;0.90;;;24.90;45.70;;;;;;4927973;29;20175;-70
2023/05/31 16:00:20;;;;;;;1.30;1.20;;;24.90;45.60;;;;;;4922374;29;20647;-69
2023/05/31 16:02:46;;;;;;;2.03;1.37;;;24.90;45.10;;;;;;4927349;29;20481;-68
2023/05/31 16:05:15;;;;;;;1.40;1.30;;;24.90;45.60;;;;;;4926821;29;20213;-68
2023/05/31 16:07:44;;;;;;;1.13;1.03;;;24.90;46.00;;;;;;4935846;29;20241;-69
2023/05/31 16:10:13;;;;;;;1.27;1.20;;;24.80;45.90;;;;;;4928240;29;20513;-70
2023/05/31 16:12:41;;;;;;;1.10;0.93;;;24.80;46.20;;;;;;4922223;29;20911;-69
2023/05/31 16:15:07;;;;;;;1.80;1.13;;;24.80;46.40;;;;;;4925340;29;20969;-68
2023/05/31 16:17:33;;;;;;;0.97;0.87;;;24.80;46.70;;;;;;4922863;29;20448;-69
2023/05/31 16:19:58;;;;;;;2.13;1.60;;;24.80;47.20;;;;;;4917719;29;20919;-70
2023/05/31 16:22:24;;;;;;;1.27;1.17;;;24.90;47.00;;;;;;4918142;29;20166;-69
2023/05/31 16:24:50;;;;;;;1.17;1.07;;;24.90;47.20;;;;;;4925835;29;20198;-69
2023/05/31 16:27:17;;;;;;;0.97;0.97;;;24.90;46.20;;;;;;4938951;29;20178;-68
2023/05/31 16:29:42;;;;;;;1.20;1.07;;;24.90;46.20;;;;;;4935016;29;20422;-68
2023/05/31 16:32:08;;;;;;;1.47;1.37;;;24.90;45.50;;;;;;4928168;29;20392;-68
2023/05/31 16:34:34;;;;;;;2.63;1.10;;;24.90;46.20;;;;;;4933838;29;20210;-68
2023/05/31 16:37:00;;;;;;;1.57;1.57;;;24.90;45.70;;;;;;4925151;29;20927;-68
2023/05/31 16:39:26;;;;;;;1.07;1.00;;;24.90;45.30;;;;;;4922188;29;20417;-69
2023/05/31 16:41:52;;;;;;;1.13;1.03;;;24.80;44.80;;;;;;4939342;29;20388;-69
2023/05/31 16:44:18;;;;;;;1.20;1.10;;;24.80;45.40;;;;;;4938295;29;20543;-68
2023/05/31 16:46:44;;;;;;;1.03;1.03;;;24.80;45.30;;;;;;4929761;29;20509;-68
2023/05/31 16:49:10;;;;;;;1.03;0.93;;;24.80;45.50;;;;;;4929213;29;20239;-70
2023/05/31 16:51:38;;;;;;;0.80;0.80;;;24.70;46.10;;;;;;4934114;29;20434;-68